Time;durP1;ratioP1;P1;durP2;ratioP2;P2;SDS_P1;SDS_P2;PMS_P1;PMS_P2;Temp;Humidity;BMP_temperature;BMP_pressure;BME280_temperature;BME280_humidity;BME280_pressure;Samples;Min_cycle;Max_cycle;Signal;HPM_P1;HPM_P2
2024/01/25 00:02:20;;;;;;;43.25;5.97;;;;;;;9.83;84.69;101108.63;5016241;28;20053;-80
2024/01/25 00:04:47;;;;;;;32.67;4.55;;;;;;;9.82;84.89;101104.25;5027345;28;20041;-81
2024/01/25 00:07:13;;;;;;;40.90;5.93;;;;;;;9.82;84.80;101117.53;5047606;28;20053;-81
2024/01/25 00:09:40;;;;;;;35.83;5.63;;;;;;;9.78;85.08;101112.44;5017654;28;20045;-81
2024/01/25 00:12:07;;;;;;;30.60;4.68;;;;;;;9.82;84.67;101098.97;5016504;28;20048;-81
2024/01/25 00:14:34;;;;;;;38.50;5.30;;;;;;;9.84;84.94;101099.72;5043889;28;20061;-81
2024/01/25 00:17:01;;;;;;;33.80;4.75;;;;;;;9.82;85.13;101102.50;5029709;28;20052;-81
2024/01/25 00:19:28;;;;;;;26.95;4.57;;;;;;;9.79;85.45;101105.31;5031307;28;20048;-80
2024/01/25 00:21:54;;;;;;;27.98;5.32;;;;;;;9.78;85.34;101093.00;5013392;28;20056;-81
2024/01/25 00:24:21;;;;;;;33.75;4.93;;;;;;;9.79;85.27;101092.06;5048523;28;20050;-80
2024/01/25 00:26:48;;;;;;;33.20;4.60;;;;;;;9.81;85.02;101095.47;5021539;28;20076;-80
2024/01/25 00:29:15;;;;;;;35.55;4.75;;;;;;;9.82;85.17;101086.56;5010701;28;20077;-81
2024/01/25 00:31:42;;;;;;;41.65;5.35;;;;;;;9.84;84.95;101081.16;5038830;28;20080;-80
2024/01/25 00:34:09;;;;;;;43.15;6.53;;;;;;;9.84;84.86;101089.09;5031531;28;20045;-80
2024/01/25 00:36:36;;;;;;;38.22;4.50;;;;;;;9.81;85.06;101090.16;5029601;28;20515;-80
2024/01/25 00:39:04;;;;;;;36.30;5.45;;;;;;;9.76;85.37;101090.44;5029808;28;20041;-81
2024/01/25 00:41:32;;;;;;;38.60;5.90;;;;;;;9.80;85.54;101079.66;5018211;28;20118;-81
2024/01/25 00:43:59;;;;;;;28.92;5.78;;;;;;;9.82;85.37;101077.72;5033215;28;20041;-81
2024/01/25 00:46:26;;;;;;;38.05;7.15;;;;;;;9.80;85.33;101077.00;5016568;28;20088;-81
2024/01/25 00:48:53;;;;;;;40.47;7.32;;;;;;;9.81;85.09;101087.50;5008196;28;20048;-81
2024/01/25 00:51:23;;;;;;;39.45;4.75;;;;;;;9.80;85.14;101083.16;5042404;28;20049;-81
2024/01/25 00:53:50;;;;;;;44.10;4.65;;;;;;;9.83;85.25;101079.47;5059335;28;20053;-81
2024/01/25 00:56:17;;;;;;;41.58;5.35;;;;;;;9.76;85.40;101076.34;5011865;28;20063;-80
2024/01/25 00:58:44;;;;;;;24.90;5.50;;;;;;;9.72;85.27;101072.22;5032660;28;20095;-81
2024/01/25 01:01:11;;;;;;;31.33;5.70;;;;;;;9.72;85.40;101074.84;5033940;28;20073;-81
2024/01/25 01:03:38;;;;;;;49.08;6.72;;;;;;;9.69;85.20;101081.22;5015445;28;20136;-80
2024/01/25 01:06:06;;;;;;;40.75;5.85;;;;;;;9.70;85.42;101090.00;5029595;28;20780;-80
2024/01/25 01:08:33;;;;;;;50.67;7.30;;;;;;;9.70;85.29;101093.50;5043748;28;20041;-80
2024/01/25 01:11:00;;;;;;;42.03;6.40;;;;;;;9.70;85.29;101092.66;5030098;28;20112;-80
2024/01/25 01:13:27;;;;;;;27.88;5.25;;;;;;;9.67;85.62;101100.81;5021764;28;20045;-80
2024/01/25 01:15:53;;;;;;;41.80;5.50;;;;;;;9.69;85.58;101088.28;5031526;28;20044;-80
2024/01/25 01:18:20;;;;;;;37.00;6.45;;;;;;;9.68;85.65;101094.56;5033471;28;20530;-80
2024/01/25 01:20:47;;;;;;;32.97;4.30;;;;;;;9.67;86.00;101090.22;5018233;28;20047;-81
2024/01/25 01:23:15;;;;;;;49.55;5.50;;;;;;;9.67;86.06;101082.25;5045798;28;20118;-82
2024/01/25 01:25:42;;;;;;;32.33;4.43;;;;;;;9.65;86.09;101089.47;5033245;28;20432;-80
2024/01/25 01:28:09;;;;;;;36.95;6.82;;;;;;;9.66;86.26;101099.09;5018447;28;20124;-80
2024/01/25 01:30:35;;;;;;;53.40;7.68;;;;;;;9.60;86.39;101096.88;5028957;28;20048;-80
2024/01/25 01:33:02;;;;;;;25.52;5.15;;;;;;;9.61;86.36;101091.44;5032821;28;20042;-80
2024/01/25 01:35:29;;;;;;;43.05;4.95;;;;;;;9.62;86.34;101093.16;5026944;28;20049;-80
2024/01/25 01:37:56;;;;;;;37.20;4.75;;;;;;;9.61;86.37;101095.91;5042314;28;20053;-80
2024/01/25 01:40:23;;;;;;;49.50;7.32;;;;;;;9.61;86.53;101103.84;5026847;28;20411;-80
2024/01/25 01:42:50;;;;;;;33.67;5.22;;;;;;;9.63;86.58;101101.97;5026809;28;20045;-81
2024/01/25 01:45:17;;;;;;;45.80;4.80;;;;;;;9.64;86.58;101099.22;5017180;28;20095;-80
2024/01/25 01:47:43;;;;;;;32.85;4.57;;;;;;;9.62;86.65;101089.66;5027685;28;20065;-81
2024/01/25 01:50:10;;;;;;;35.55;5.35;;;;;;;9.61;86.82;101094.09;4999414;28;20053;-81
2024/01/25 01:52:37;;;;;;;36.88;4.15;;;;;;;9.60;86.84;101094.22;5018173;28;20075;-81
2024/01/25 01:55:05;;;;;;;37.17;4.70;;;;;;;9.56;87.00;101093.53;5031093;28;20068;-81
2024/01/25 01:57:32;;;;;;;41.78;5.50;;;;;;;9.61;86.97;101091.44;5042483;28;20053;-80
2024/01/25 01:59:59;;;;;;;38.88;5.40;;;;;;;9.61;86.47;101082.63;5027984;28;20037;-80
2024/01/25 02:02:26;;;;;;;48.38;4.97;;;;;;;9.67;85.83;101092.88;5005361;28;20053;-81
2024/01/25 02:04:53;;;;;;;40.40;4.82;;;;;;;9.69;85.71;101093.59;5021024;28;20057;-81
2024/01/25 02:07:20;;;;;;;53.47;6.07;;;;;;;9.67;85.49;101085.75;5043243;28;20053;-80
2024/01/25 02:09:47;;;;;;;40.97;4.75;;;;;;;9.66;85.26;101094.66;5033866;28;20041;-81
2024/01/25 02:12:17;;;;;;;35.97;4.97;;;;;;;9.68;85.19;101100.72;5034741;28;20496;-80
2024/01/25 02:14:44;;;;;;;48.17;7.85;;;;;;;9.69;85.22;101090.94;5053091;28;20400;-80
2024/01/25 02:17:11;;;;;;;28.63;4.45;;;;;;;9.66;85.20;101086.69;5006325;28;20134;-80
2024/01/25 02:19:37;;;;;;;33.45;6.25;;;;;;;9.62;85.09;101085.19;5032355;28;20045;-81
2024/01/25 02:22:05;;;;;;;34.13;4.82;;;;;;;9.53;84.94;101083.97;5020174;28;20044;-80
2024/01/25 02:24:31;;;;;;;37.30;6.82;;;;;;;9.51;85.13;101092.97;5019805;28;20046;-80
2024/01/25 02:26:58;;;;;;;34.75;5.45;;;;;;;9.50;84.99;101086.84;5003474;28;20053;-80
2024/01/25 02:29:25;;;;;;;35.08;4.05;;;;;;;9.48;85.02;101082.56;5064575;28;20038;-80
2024/01/25 02:31:52;;;;;;;37.92;4.65;;;;;;;9.43;85.07;101084.66;5046696;28;20136;-80
2024/01/25 02:34:19;;;;;;;32.13;5.40;;;;;;;9.40;85.11;101085.72;5031259;28;20107;-81
2024/01/25 02:36:46;;;;;;;42.65;4.00;;;;;;;9.38;84.90;101086.75;5034045;28;20408;-80
2024/01/25 02:39:13;;;;;;;38.30;5.75;;;;;;;9.32;85.05;101091.50;5018765;28;20053;-81
2024/01/25 02:41:39;;;;;;;63.83;6.05;;;;;;;9.31;85.04;101091.59;5032334;28;20052;-81
2024/01/25 02:44:06;;;;;;;29.90;5.45;;;;;;;9.35;85.02;101095.75;5037454;28;20048;-81
2024/01/25 02:46:33;;;;;;;43.25;4.72;;;;;;;9.32;85.14;101088.84;5036461;28;20415;-81
2024/01/25 02:49:00;;;;;;;28.40;4.25;;;;;;;9.30;85.32;101087.25;5003624;28;20042;-80
2024/01/25 02:51:27;;;;;;;34.53;3.90;;;;;;;9.30;85.37;101080.13;5033504;28;20049;-80
2024/01/25 02:53:54;;;;;;;51.28;6.72;;;;;;;9.35;85.21;101075.41;5050313;28;20049;-80
2024/01/25 02:56:21;;;;;;;28.00;4.70;;;;;;;9.42;84.86;101077.69;5032119;28;20052;-80
2024/01/25 02:58:47;;;;;;;43.03;5.53;;;;;;;9.41;84.58;101084.75;5032582;28;20515;-80
2024/01/25 03:01:14;;;;;;;41.42;4.68;;;;;;;9.45;84.55;101086.28;5044831;28;20060;-81
2024/01/25 03:03:41;;;;;;;39.38;5.13;;;;;;;9.49;84.38;101081.63;5048556;28;20049;-80
2024/01/25 03:06:09;;;;;;;53.22;5.07;;;;;;;9.52;84.17;101079.63;5053879;28;20138;-80
2024/01/25 03:08:36;;;;;;;43.72;4.65;;;;;;;9.53;83.75;101094.59;5031989;28;20038;-81
2024/01/25 03:11:04;;;;;;;26.80;4.63;;;;;;;9.55;83.91;101094.50;5012366;28;20442;-80
2024/01/25 03:13:31;;;;;;;30.55;4.38;;;;;;;9.54;83.38;101088.34;5044904;28;20445;-80
2024/01/25 03:15:58;;;;;;;45.97;5.35;;;;;;;9.53;83.66;101091.94;5044626;28;20400;-80
2024/01/25 03:18:25;;;;;;;55.53;6.28;;;;;;;9.53;83.47;101086.63;5031409;28;20068;-80
2024/01/25 03:20:52;;;;;;;37.08;4.82;;;;;;;9.51;83.03;101101.78;5019384;28;20037;-80
2024/01/25 03:23:18;;;;;;;36.97;4.82;;;;;;;9.48;83.12;101093.19;5039566;28;20845;-81
2024/01/25 03:25:45;;;;;;;43.38;4.50;;;;;;;9.45;83.19;101099.53;5033199;28;20133;-81
2024/01/25 03:28:13;;;;;;;38.75;6.15;;;;;;;9.41;83.43;101091.88;5028009;28;20192;-80
2024/01/25 03:30:40;;;;;;;34.70;4.20;;;;;;;9.39;83.00;101104.34;5032266;28;20052;-81
2024/01/25 03:33:07;;;;;;;31.45;5.00;;;;;;;9.34;82.81;101105.53;5003121;28;20048;-81
2024/01/25 03:35:34;;;;;;;26.27;3.42;;;;;;;9.33;82.53;101105.59;5045775;28;20750;-81
2024/01/25 03:38:01;;;;;;;42.50;5.03;;;;;;;9.33;82.69;101118.84;5030969;28;20057;-82
2024/01/25 03:40:28;;;;;;;40.85;4.55;;;;;;;9.28;82.72;101118.28;5031945;28;20064;-81
2024/01/25 03:42:54;;;;;;;30.95;3.90;;;;;;;9.23;82.58;101125.69;5036997;28;20098;-80
2024/01/25 03:45:41;;;;;;;35.38;5.13;;;;;;;9.18;82.67;101125.97;5043150;28;20057;-81
2024/01/25 03:48:08;;;;;;;44.00;5.38;;;;;;;9.13;82.94;101128.91;5049622;28;20043;-80
2024/01/25 03:50:35;;;;;;;36.80;5.25;;;;;;;9.10;83.10;101142.34;5032414;28;20049;-81
2024/01/25 03:53:03;;;;;;;47.15;4.45;;;;;;;9.06;83.24;101140.84;5013939;28;20041;-80
2024/01/25 03:55:29;;;;;;;42.22;4.68;;;;;;;8.98;83.48;101143.09;5031162;28;20056;-80
2024/01/25 03:57:56;;;;;;;42.00;5.47;;;;;;;8.93;83.48;101139.00;5032185;28;20053;-81
2024/01/25 04:00:23;;;;;;;38.13;4.20;;;;;;;8.90;83.26;101148.00;5017206;28;20115;-81
2024/01/25 04:02:50;;;;;;;31.30;4.53;;;;;;;8.91;83.38;101149.72;5001421;28;20049;-81
2024/01/25 04:05:17;;;;;;;29.25;4.63;;;;;;;8.89;83.27;101156.91;5041416;28;20110;-81
2024/01/25 04:07:44;;;;;;;45.13;5.80;;;;;;;8.87;83.04;101154.34;5032722;28;20085;-81
2024/01/25 04:10:11;;;;;;;35.42;5.80;;;;;;;8.81;83.34;101154.72;5038499;28;20106;-81
2024/01/25 04:12:39;;;;;;;32.38;4.90;;;;;;;8.78;83.51;101154.91;5044969;28;20499;-81
2024/01/25 04:15:06;;;;;;;40.85;6.15;;;;;;;8.79;83.25;101148.66;5031274;28;20042;-81
2024/01/25 04:17:33;;;;;;;44.17;4.78;;;;;;;8.73;83.32;101145.50;5040243;28;20055;-81
2024/01/25 04:19:59;;;;;;;25.35;4.32;;;;;;;8.72;83.49;101147.31;5032287;28;20404;-81
2024/01/25 04:22:27;;;;;;;35.78;4.85;;;;;;;8.72;83.48;101149.09;5004952;28;20049;-81
2024/01/25 04:24:53;;;;;;;39.70;5.97;;;;;;;8.74;83.30;101145.44;5033842;28;20205;-81
2024/01/25 04:27:20;;;;;;;34.63;4.90;;;;;;;8.72;83.51;101152.59;5030724;28;20059;-81
2024/01/25 04:29:47;;;;;;;36.20;4.90;;;;;;;8.78;83.27;101165.50;5028338;28;20791;-81
2024/01/25 04:32:14;;;;;;;35.13;6.40;;;;;;;8.68;83.35;101159.88;5044676;28;20836;-80
2024/01/25 04:34:43;;;;;;;35.55;5.38;;;;;;;8.65;83.32;101160.06;5012943;28;20098;-81
2024/01/25 04:37:11;;;;;;;32.30;5.85;;;;;;;8.60;83.56;101179.81;5037575;28;20034;-80
2024/01/25 04:39:38;;;;;;;42.65;5.93;;;;;;;8.66;83.20;101167.06;5047067;28;20539;-81
2024/01/25 04:42:13;;;;;;;30.63;5.10;;;;;;;8.55;82.96;101176.56;5044637;28;20053;-81
2024/01/25 04:44:40;;;;;;;28.65;4.45;;;;;;;8.58;83.41;101193.16;5030743;28;20041;-80
2024/01/25 04:47:08;;;;;;;34.15;4.85;;;;;;;8.55;83.29;101201.28;5012661;28;20050;-80
2024/01/25 04:49:35;;;;;;;30.88;5.38;;;;;;;8.51;83.47;101205.03;5030644;28;20136;-81
2024/01/25 04:52:02;;;;;;;38.85;4.80;;;;;;;8.51;83.43;101207.69;5031339;28;20102;-80
2024/01/25 04:54:29;;;;;;;36.95;4.13;;;;;;;8.47;83.81;101214.97;5029957;28;20451;-81
2024/01/25 04:56:56;;;;;;;32.67;4.68;;;;;;;8.53;83.86;101224.34;5044722;28;20095;-81
2024/01/25 04:59:23;;;;;;;34.17;4.80;;;;;;;8.54;83.83;101223.38;5026506;28;20041;-80
2024/01/25 05:01:51;;;;;;;40.83;5.32;;;;;;;8.51;84.02;101233.31;5042718;28;20507;-80
2024/01/25 05:04:18;;;;;;;35.55;5.13;;;;;;;8.52;84.01;101240.28;5029818;28;20045;-81
2024/01/25 05:06:45;;;;;;;36.55;8.88;;;;;;;8.52;84.26;101240.28;5020907;28;20060;-80
2024/01/25 05:09:13;;;;;;;40.60;10.48;;;;;;;8.56;84.32;101242.69;5027215;28;20045;-81
2024/01/25 05:11:40;;;;;;;28.83;9.93;;;;;;;8.56;84.35;101241.84;5014836;28;20081;-81
2024/01/25 05:14:07;;;;;;;36.13;6.70;;;;;;;8.55;84.55;101241.00;5046001;28;20046;-80
2024/01/25 05:16:35;;;;;;;44.05;6.65;;;;;;;8.51;84.79;101231.50;5018574;28;20064;-80
2024/01/25 05:19:02;;;;;;;43.70;5.72;;;;;;;8.54;84.89;101230.47;5033510;28;20380;-80
2024/01/25 05:21:29;;;;;;;40.47;4.78;;;;;;;8.53;84.70;101228.78;5020735;28;20127;-80
2024/01/25 05:23:56;;;;;;;29.58;5.40;;;;;;;8.51;84.94;101230.66;5028136;28;20080;-81
2024/01/25 05:26:22;;;;;;;27.33;4.90;;;;;;;8.51;85.07;101228.00;5061560;28;20090;-81
2024/01/25 05:28:49;;;;;;;25.73;4.55;;;;;;;8.50;84.88;101227.16;5033792;28;20133;-81
2024/01/25 05:31:16;;;;;;;41.75;4.78;;;;;;;8.48;84.90;101221.94;5028246;28;20871;-81
2024/01/25 05:33:43;;;;;;;36.05;7.57;;;;;;;8.51;84.61;101223.56;5046765;28;20046;-80
2024/01/25 05:36:10;;;;;;;38.30;7.75;;;;;;;8.45;84.30;101218.63;5014778;28;20053;-80
2024/01/25 05:38:37;;;;;;;48.15;7.60;;;;;;;8.38;84.37;101214.59;5031984;28;20055;-80
2024/01/25 05:41:03;;;;;;;35.55;5.20;;;;;;;8.33;84.21;101224.59;5029954;28;20063;-81
2024/01/25 05:43:30;;;;;;;33.35;5.53;;;;;;;8.30;84.06;101235.34;5061940;28;20052;-80
2024/01/25 05:45:57;;;;;;;32.58;5.13;;;;;;;8.31;84.00;101243.19;5008371;28;20045;-81
2024/01/25 05:48:25;;;;;;;34.90;5.72;;;;;;;8.31;84.59;101239.69;5032373;28;20068;-81
2024/01/25 05:50:52;;;;;;;30.13;4.93;;;;;;;8.35;84.69;101238.59;5017412;28;20122;-80
2024/01/25 05:53:19;;;;;;;35.35;5.40;;;;;;;8.36;84.90;101227.06;5045982;28;20222;-80
2024/01/25 05:55:46;;;;;;;30.08;5.80;;;;;;;8.33;85.29;101235.19;5020215;28;20046;-80
2024/01/25 05:58:13;;;;;;;36.95;6.00;;;;;;;8.37;84.89;101241.97;5031470;28;20069;-80
2024/01/25 06:00:40;;;;;;;35.63;5.07;;;;;;;8.36;85.09;101246.44;5029820;28;20159;-80
2024/01/25 06:03:07;;;;;;;34.53;4.90;;;;;;;8.30;85.25;101236.19;5065580;28;20051;-80
2024/01/25 06:05:34;;;;;;;49.97;5.78;;;;;;;8.27;85.11;101242.53;5064824;28;20033;-80
2024/01/25 06:08:01;;;;;;;25.48;3.63;;;;;;;8.23;85.40;101246.28;5034261;28;20045;-80
2024/01/25 06:10:28;;;;;;;31.88;5.88;;;;;;;8.15;84.99;101237.06;5060380;28;20659;-80
2024/01/25 06:12:55;;;;;;;39.13;4.95;;;;;;;8.10;85.38;101245.25;5015682;28;20045;-80
2024/01/25 06:15:22;;;;;;;43.38;6.90;;;;;;;8.09;84.78;101240.03;5031122;28;20103;-80
2024/01/25 06:17:49;;;;;;;31.63;4.03;;;;;;;8.01;84.68;101243.97;5035359;28;20045;-80
2024/01/25 06:20:16;;;;;;;37.17;4.95;;;;;;;8.00;84.75;101257.28;5050822;28;20056;-80
2024/01/25 06:22:43;;;;;;;30.75;4.85;;;;;;;8.04;85.04;101253.53;4989596;28;20041;-80
2024/01/25 06:25:09;;;;;;;36.22;4.25;;;;;;;8.08;85.01;101257.72;5034088;28;20044;-80
2024/01/25 06:27:36;;;;;;;32.90;5.15;;;;;;;8.04;85.39;101250.91;5031947;28;20057;-80
2024/01/25 06:30:04;;;;;;;36.63;4.63;;;;;;;8.04;85.64;101264.97;5017670;28;20567;-81
2024/01/25 06:32:31;;;;;;;32.33;5.43;;;;;;;8.09;85.59;101264.72;5026475;28;20049;-80
2024/01/25 06:34:58;;;;;;;33.15;4.00;;;;;;;8.05;86.21;101256.09;5013269;28;20115;-80
2024/01/25 06:37:25;;;;;;;32.95;4.68;;;;;;;8.07;86.16;101260.47;5033276;28;20124;-80
2024/01/25 06:39:52;;;;;;;25.75;5.18;;;;;;;8.10;86.30;101263.78;5067662;28;20055;-81
2024/01/25 06:42:18;;;;;;;34.67;7.05;;;;;;;8.10;86.31;101274.34;5025785;28;20128;-80
2024/01/25 06:44:45;;;;;;;41.95;5.82;;;;;;;8.07;86.54;101273.69;5062791;28;20047;-81
2024/01/25 06:47:13;;;;;;;45.67;9.32;;;;;;;8.05;86.19;101269.31;5021509;28;20045;-80
2024/01/25 06:49:39;;;;;;;36.42;6.97;;;;;;;8.09;86.52;101280.59;5000565;28;20529;-80
2024/01/25 06:52:06;;;;;;;41.33;6.05;;;;;;;8.09;86.80;101292.94;5013413;28;20123;-80
2024/01/25 06:54:33;;;;;;;36.10;5.50;;;;;;;8.13;86.61;101297.16;5063855;28;20484;-82
2024/01/25 06:57:00;;;;;;;34.67;4.55;;;;;;;8.16;86.72;101295.16;5031168;28;20060;-81
2024/01/25 06:59:27;;;;;;;37.65;5.40;;;;;;;8.18;86.81;101295.94;5064375;28;20057;-80
2024/01/25 07:01:54;;;;;;;40.65;5.43;;;;;;;8.20;86.92;101290.59;5031242;28;20128;-80
2024/01/25 07:04:21;;;;;;;35.42;6.10;;;;;;;8.19;87.08;101292.38;5029067;28;20042;-80
2024/01/25 07:06:51;;;;;;;37.05;3.95;;;;;;;8.25;86.63;101280.59;5034715;28;20041;-80
2024/01/25 07:09:19;;;;;;;42.63;6.30;;;;;;;8.29;86.70;101283.91;5030223;28;20055;-80
2024/01/25 07:11:46;;;;;;;32.33;4.57;;;;;;;8.32;86.62;101287.25;5032143;28;20052;-80
2024/01/25 07:14:12;;;;;;;36.17;4.70;;;;;;;8.26;87.00;101277.00;5029157;28;20045;-80
2024/01/25 07:16:39;;;;;;;37.63;5.40;;;;;;;8.28;86.81;101275.13;5027290;28;20065;-81
2024/01/25 07:19:06;;;;;;;30.30;6.72;;;;;;;8.23;86.98;101267.44;5032114;28;20046;-80
2024/01/25 07:21:33;;;;;;;40.20;7.45;;;;;;;8.23;86.81;101269.25;5027276;28;20107;-81
2024/01/25 07:24:04;;;;;;;44.17;7.68;;;;;;;8.26;86.40;101263.78;5030037;28;20375;-81
2024/01/25 07:26:31;;;;;;;36.13;5.55;;;;;;;8.31;86.15;101264.38;5063368;28;20725;-81
2024/01/25 07:28:59;;;;;;;46.90;6.63;;;;;;;8.31;86.09;101271.47;5028694;28;20128;-81
2024/01/25 07:31:27;;;;;;;36.95;5.75;;;;;;;8.31;85.93;101269.66;5016023;28;20144;-80
2024/01/25 07:33:55;;;;;;;44.10;5.95;;;;;;;8.25;85.67;101277.94;5060722;28;20049;-81
2024/01/25 07:36:22;;;;;;;52.88;5.57;;;;;;;8.28;85.67;101285.72;5027394;28;20049;-81
2024/01/25 07:38:51;;;;;;;40.20;4.53;;;;;;;8.30;85.77;101297.06;5020212;28;20053;-82
2024/01/25 07:41:18;;;;;;;35.30;5.20;;;;;;;8.31;85.61;101295.28;5012795;28;20160;-82
2024/01/25 07:43:44;;;;;;;39.80;7.20;;;;;;;8.26;85.48;101287.59;5012177;28;20053;-81
2024/01/25 07:46:14;;;;;;;45.00;7.35;;;;;;;8.32;85.63;101292.56;5016679;28;20085;-81
2024/01/25 07:48:41;;;;;;;37.95;6.53;;;;;;;8.39;85.27;101293.06;5033290;28;20124;-81
2024/01/25 07:51:15;;;;;;;51.95;9.18;;;;;;;8.37;84.92;101292.28;5030337;28;20049;-82
2024/01/25 07:53:42;;;;;;;55.47;7.25;;;;;;;8.41;85.13;101300.00;5027951;28;20044;-82
2024/01/25 07:56:10;;;;;;;55.08;6.30;;;;;;;8.41;85.35;101301.78;5028176;28;20829;-81
2024/01/25 07:58:38;;;;;;;50.33;6.88;;;;;;;8.43;85.25;101302.56;5029264;28;20056;-81
2024/01/25 08:01:08;;;;;;;43.03;6.68;;;;;;;8.41;85.34;101302.66;5045484;28;20782;-81
2024/01/25 08:03:36;;;;;;;51.95;8.57;;;;;;;8.40;85.41;101300.94;5030037;28;20405;-82
2024/01/25 08:06:03;;;;;;;46.13;5.72;;;;;;;8.42;85.56;101304.38;5028699;28;20048;-81
2024/01/25 08:08:30;;;;;;;36.70;7.25;;;;;;;8.44;85.33;101315.69;5029987;28;20397;-81
2024/01/25 08:10:58;;;;;;;43.60;6.57;;;;;;;8.48;85.42;101319.03;5060052;28;20147;-82
2024/01/25 08:13:25;;;;;;;40.05;6.95;;;;;;;8.52;85.38;101319.72;5027839;28;20047;-82
2024/01/25 08:15:51;;;;;;;64.07;11.77;;;;;;;8.51;85.45;101320.66;5034824;28;20040;-82
2024/01/25 08:18:19;;;;;;;57.15;12.40;;;;;;;8.52;85.63;101320.56;5011720;28;20041;-82
2024/01/25 08:20:46;;;;;;;62.95;11.07;;;;;;;8.54;85.58;101323.13;5023510;28;20049;-82
2024/01/25 08:23:14;;;;;;;50.85;9.43;;;;;;;8.56;85.47;101316.81;5044469;28;20563;-82
2024/01/25 08:25:41;;;;;;;45.35;7.80;;;;;;;8.59;85.68;101308.69;5032001;28;20056;-82
2024/01/25 08:28:08;;;;;;;46.38;8.77;;;;;;;8.60;85.47;101309.53;5045094;28;20081;-82
2024/01/25 08:30:35;;;;;;;34.63;8.43;;;;;;;8.59;85.58;101311.34;5017802;28;20079;-81
2024/01/25 08:33:03;;;;;;;52.95;7.53;;;;;;;8.61;85.33;101309.47;5033575;28;20087;-82
2024/01/25 08:35:33;;;;;;;50.60;7.80;;;;;;;8.63;85.44;101309.41;5028888;28;20049;-81
2024/01/25 08:38:00;;;;;;;55.10;8.25;;;;;;;8.66;85.13;101315.34;5028119;28;20053;-81
2024/01/25 08:40:27;;;;;;;41.20;6.80;;;;;;;8.70;85.34;101318.66;5012350;28;20059;-81
2024/01/25 08:42:56;;;;;;;49.35;7.32;;;;;;;8.73;85.20;101317.63;5011240;28;20061;-81
2024/01/25 08:45:23;;;;;;;42.75;7.75;;;;;;;8.74;85.27;101322.00;5030865;28;20665;-82
2024/01/25 08:47:51;;;;;;;49.97;8.57;;;;;;;8.77;85.12;101321.84;5014845;28;20068;-82
2024/01/25 08:50:18;;;;;;;48.88;6.43;;;;;;;8.78;85.33;101321.75;5017986;28;20128;-81
2024/01/25 08:52:45;;;;;;;43.08;6.72;;;;;;;8.81;85.13;101315.44;5029957;28;20045;-81
2024/01/25 08:55:12;;;;;;;58.58;7.70;;;;;;;8.83;85.11;101310.91;5016327;28;20037;-81
2024/01/25 08:57:40;;;;;;;58.88;8.27;;;;;;;8.84;85.14;101317.91;5030524;28;20712;-82
2024/01/25 09:00:11;;;;;;;61.55;9.88;;;;;;;8.86;84.56;101321.31;5027102;28;20057;-81
2024/01/25 09:02:38;;;;;;;44.85;6.55;;;;;;;8.86;84.74;101327.47;5029163;28;20045;-82
2024/01/25 09:05:05;;;;;;;32.38;5.30;;;;;;;8.89;84.94;101340.53;5027776;28;20802;-82
2024/01/25 09:07:32;;;;;;;48.55;5.78;;;;;;;8.90;83.92;101336.06;5014544;28;20072;-81
2024/01/25 09:09:59;;;;;;;44.83;5.53;;;;;;;8.90;84.01;101338.72;5000860;28;20497;-82
2024/01/25 09:12:26;;;;;;;33.08;5.32;;;;;;;8.93;83.83;101349.16;5029365;28;20049;-81
2024/01/25 09:14:53;;;;;;;36.78;4.80;;;;;;;8.94;84.07;101350.88;5033677;28;20053;-82
2024/01/25 09:17:23;;;;;;;43.33;5.82;;;;;;;8.97;84.18;101349.84;5027434;28;20064;-82
2024/01/25 09:19:50;;;;;;;37.60;5.32;;;;;;;8.97;83.88;101340.09;5030997;28;20049;-81
2024/01/25 09:22:19;;;;;;;44.60;5.30;;;;;;;8.99;83.98;101340.84;5025509;28;20694;-81
2024/01/25 09:24:46;;;;;;;46.55;7.07;;;;;;;9.02;83.77;101342.47;5015215;28;20041;-81
2024/01/25 09:27:14;;;;;;;44.38;5.43;;;;;;;9.00;83.22;101350.50;5023889;28;20432;-82
2024/01/25 09:29:43;;;;;;;38.90;5.53;;;;;;;9.02;83.40;101355.72;5016289;28;20455;-82
2024/01/25 09:32:09;;;;;;;38.50;6.43;;;;;;;9.00;83.02;101355.81;5024609;28;20661;-81
2024/01/25 09:34:38;;;;;;;39.17;6.03;;;;;;;9.04;83.32;101359.16;5043659;28;20056;-82
2024/01/25 09:37:07;;;;;;;46.97;5.80;;;;;;;9.06;83.31;101359.91;5019085;28;20408;-83
2024/01/25 09:39:35;;;;;;;35.45;7.25;;;;;;;9.09;83.53;101363.22;5006776;28;20045;-82
2024/01/25 09:42:04;;;;;;;41.17;6.70;;;;;;;9.10;83.06;101362.28;5030440;28;20052;-82
2024/01/25 09:44:31;;;;;;;40.70;5.65;;;;;;;9.12;83.49;101363.03;5020319;28;20558;-81
2024/01/25 09:46:58;;;;;;;49.05;4.82;;;;;;;9.16;83.32;101371.69;5049314;28;20150;-82
2024/01/25 09:49:25;;;;;;;34.58;6.30;;;;;;;9.19;82.44;101374.16;5030746;28;20106;-81
2024/01/25 09:51:52;;;;;;;41.78;5.72;;;;;;;9.18;82.38;101366.28;5041429;28;20052;-81
2024/01/25 09:54:19;;;;;;;37.70;6.07;;;;;;;9.21;82.78;101371.41;5053656;28;20044;-82
2024/01/25 09:56:51;;;;;;;33.90;5.68;;;;;;;9.24;82.90;101376.53;5033753;28;20095;-81
2024/01/25 09:59:18;;;;;;;54.13;5.43;;;;;;;9.25;82.85;101384.38;5067884;28;20052;-81
2024/01/25 10:01:46;;;;;;;41.25;5.68;;;;;;;9.30;81.82;101378.81;5031339;28;20045;-81
2024/01/25 10:04:13;;;;;;;50.53;5.72;;;;;;;9.27;81.42;101377.22;5064526;28;20063;-81
2024/01/25 10:06:40;;;;;;;44.58;4.75;;;;;;;9.30;81.89;101373.53;5001440;28;20060;-82
2024/01/25 10:09:09;;;;;;;32.15;6.35;;;;;;;9.33;82.20;101371.53;5034415;28;20103;-81
2024/01/25 10:11:37;;;;;;;42.20;5.25;;;;;;;9.43;82.11;101374.50;5063799;28;20049;-81
2024/01/25 10:14:11;;;;;;;37.17;4.53;;;;;;;9.38;81.24;101376.56;5018940;28;20052;-82
2024/01/25 10:16:37;;;;;;;40.97;5.47;;;;;;;9.40;81.57;101377.34;5024437;28;20128;-81
2024/01/25 10:19:07;;;;;;;44.70;5.78;;;;;;;9.45;81.91;101382.38;5038848;28;20034;-82
2024/01/25 10:21:35;;;;;;;47.58;6.93;;;;;;;9.44;81.49;101383.31;5029797;28;20052;-82
2024/01/25 10:24:05;;;;;;;47.35;5.70;;;;;;;9.45;81.12;101385.03;5047641;28;20052;-83
2024/01/25 10:26:34;;;;;;;35.70;5.70;;;;;;;9.44;81.27;101383.31;5061986;28;20574;-82
2024/01/25 10:29:02;;;;;;;38.83;5.60;;;;;;;9.49;81.29;101389.19;5046141;28;20050;-81
2024/01/25 10:31:30;;;;;;;44.70;5.25;;;;;;;9.50;81.53;101389.13;5029936;28;20095;-81
2024/01/25 10:33:59;;;;;;;51.75;6.05;;;;;;;9.54;81.79;101381.81;5068466;28;20047;-82
2024/01/25 10:36:27;;;;;;;41.50;5.82;;;;;;;9.57;81.44;101384.31;5047996;28;20124;-82
2024/01/25 10:38:54;;;;;;;38.22;7.13;;;;;;;9.55;80.66;101378.25;5016349;28;20053;-81
2024/01/25 10:41:23;;;;;;;38.95;5.90;;;;;;;9.57;78.65;101365.75;5030761;28;20045;-82
2024/01/25 10:43:52;;;;;;;38.42;5.07;;;;;;;9.55;79.24;101362.31;5015473;28;20106;-81
2024/01/25 10:46:19;;;;;;;50.90;9.13;;;;;;;9.55;79.89;101360.53;5033229;28;20455;-82
2024/01/25 10:48:47;;;;;;;48.90;6.25;;;;;;;9.58;80.22;101364.78;5030575;28;20135;-81
2024/01/25 10:51:18;;;;;;;32.65;4.88;;;;;;;9.60;80.49;101357.59;5017789;28;20531;-81
2024/01/25 10:53:45;;;;;;;36.78;6.53;;;;;;;9.62;80.38;101361.03;5018189;28;20045;-82
2024/01/25 10:56:13;;;;;;;47.28;5.45;;;;;;;9.63;80.34;101370.66;5054425;28;20045;-82
2024/01/25 10:58:41;;;;;;;36.60;7.68;;;;;;;9.64;78.64;101359.13;5014371;28;20052;-82
2024/01/25 11:01:10;;;;;;;38.00;6.75;;;;;;;9.65;78.24;101357.34;5037836;28;20055;-81
2024/01/25 11:03:42;;;;;;;39.63;5.18;;;;;;;9.64;77.36;101345.00;5030548;28;20064;-82
2024/01/25 11:06:10;;;;;;;46.92;6.03;;;;;;;9.71;76.35;101346.34;5059204;28;20437;-81
2024/01/25 11:08:38;;;;;;;23.88;4.15;;;;;;;9.64;75.43;101343.22;5037300;28;20401;-83
2024/01/25 11:11:09;;;;;;;46.15;6.00;;;;;;;9.64;75.60;101337.91;5061598;28;20056;-81
2024/01/25 11:13:38;;;;;;;29.10;5.93;;;;;;;9.68;75.99;101334.13;5029363;28;20057;-82
2024/01/25 11:16:16;;;;;;;35.30;5.28;;;;;;;9.68;75.20;101330.63;5021992;28;20788;-81
2024/01/25 11:18:48;;;;;;;47.30;7.07;;;;;;;9.80;74.40;101326.38;5026304;28;20037;-82
2024/01/25 11:21:29;;;;;;;37.90;5.73;;;;;;;9.74;74.52;101341.72;5032688;28;20403;-82
2024/01/25 11:24:02;;;;;;;38.67;5.95;;;;;;;9.74;72.94;101333.75;5000274;28;21056;-83
2024/01/25 11:26:56;;;;;;;37.20;6.25;;;;;;;9.84;75.87;101322.56;4955602;28;20048;-81